Weather reports worldwide

Advertisment
Stornoway Airport, United Kingdom (2003026): temperature & dewpoint: 10.01.2019 17:00:00 - 16.01.2019 17:00:00 (GMT)Stornoway Airport, United Kingdom (2003026): wind speed: 10.01.2019 17:00:00 - 16.01.2019 17:00:00 (GMT)Stornoway Airport, United Kingdom (2003026): wind direction: 10.01.2019 17:00:00 - 16.01.2019 17:00:00 (GMT)Stornoway Airport, United Kingdom (2003026): visibility: 10.01.2019 17:00:00 - 16.01.2019 17:00:00 (GMT)
Date & Time tt [°C] td [°C] ff [km/h] ff [kn] dd vv [km]
16.01.2019 17:00:00 3,0 0,0 41 22 N 10
16.01.2019 16:00:00 3,0 1,0 22 12 N 10
16.01.2019 15:00:00 3,0 2,0 9 5 NW 10
16.01.2019 14:00:00 2,0 1,0 15 8 WNW 10
16.01.2019 13:00:00 2,0 1,0 13 7 NNW 10
16.01.2019 12:00:00 1,0 1,0 11 6 NW 10
16.01.2019 11:00:00 1,0 1,0 11 6 NNW 10
16.01.2019 10:00:00 1,0 0,0 9 5 WNW 10
16.01.2019 09:00:00 0,0 0,0 4 2 N 1,0
16.01.2019 08:00:00 1,0 0,0 8 4 WNW 4,5
16.01.2019 07:00:00 3,0 2,0 11 6 WNW 10
16.01.2019 06:00:00 4,0 3,0 13 7 WSW 9
16.01.2019 05:00:00 5,0 4,0 9 5 W 10
16.01.2019 04:00:00 6,0 4,0 8 4 SW 10
16.01.2019 03:00:00 6,0 4,0 11 6 W 10
16.01.2019 02:00:00 6,0 4,0 16 9 WNW 10
16.01.2019 01:00:00 6,0 4,0 21 11 WNW 10
16.01.2019 00:00:00 6,0 4,0 22 12 W 10
15.01.2019 23:00:00 7,0 4,0 31 17 W 10
15.01.2019 22:00:00 7,0 5,0 37 20 W 10
15.01.2019 21:00:00 9,0 7,0 39 21 WSW 10
15.01.2019 20:00:00 10,0 8,0 39 21 SW 10
15.01.2019 19:00:00 9,0 8,0 35 19 SSW 10
15.01.2019 18:00:00 9,0 7,0 34 18 SSW 10
15.01.2019 17:00:00 9,0 6,0 34 18 SW 10
15.01.2019 16:00:00 9,0 7,0 26 14 SSW 10
15.01.2019 15:00:00 10,0 7,0 34 18 SW 10
15.01.2019 14:00:00 9,0 9,0 35 19 WSW 6
15.01.2019 13:00:00 7,0 7,0 13 7 SSW 6
15.01.2019 12:00:00 7,0 6,0 16 9 SSW 10
15.01.2019 11:00:00 7,0 6,0 9 5 SW 10
15.01.2019 10:00:00 7,0 5,0 9 5 WSW 10
15.01.2019 09:00:00 7,0 6,0 5 3 - 10
15.01.2019 08:00:00 6,0 5,0 8 4 SW 10
15.01.2019 07:00:00 6,0 4,0 8 4 WSW 10
15.01.2019 06:00:00 6,0 4,0 11 6 W 10
15.01.2019 05:00:00 7,0 4,0 9 5 SW 10
15.01.2019 04:00:00 8,0 5,0 9 5 SW 10
15.01.2019 03:00:00 8,0 5,0 22 12 W 10
15.01.2019 02:00:00 9,0 7,0 34 18 W 10
15.01.2019 01:00:00 10,0 9,0 28 15 W 10
15.01.2019 00:00:00 10,0 9,0 29 16 WSW 8
14.01.2019 23:00:00 10,0 8,0 29 16 WSW 6
14.01.2019 22:00:00 9,0 8,0 24 13 SW 10
14.01.2019 21:00:00 9,0 7,0 26 14 WSW 10
14.01.2019 20:00:00 8,0 7,0 22 12 SW 10
14.01.2019 19:00:00 7,0 7,0 16 9 SSW 10
14.01.2019 18:00:00 7,0 6,0 21 11 SSW 10
14.01.2019 17:00:00 6,0 5,0 16 9 SSW 10
14.01.2019 16:00:00 6,0 4,0 13 7 SSW 10
14.01.2019 15:00:00 7,0 4,0 11 6 SW 10
14.01.2019 14:00:00 6,0 4,0 13 7 SW 10
14.01.2019 13:00:00 5,0 4,0 11 6 SW 10
14.01.2019 12:00:00 4,0 3,0 9 5 WSW 10
14.01.2019 11:00:00 3,0 2,0 11 6 WSW 10
14.01.2019 10:00:00 2,0 1,0 11 6 WSW 10
14.01.2019 09:00:00 2,0 1,0 16 9 SW 10
14.01.2019 08:00:00 0,0 0,0 13 7 SW 10
14.01.2019 07:00:00 0,0 0,0 9 5 WSW 10
14.01.2019 06:00:00 0,0 -1,0 0 0 N 10
14.01.2019 05:00:00 0,0 -1,0 5 3 WSW 10
14.01.2019 04:00:00 1,0 0,0 0 0 N 10
14.01.2019 03:00:00 3,0 1,0 9 5 NNE 10
14.01.2019 02:00:00 5,0 2,0 11 6 NNE 10
14.01.2019 01:00:00 5,0 1,0 13 7 NE 10
14.01.2019 00:00:00 5,0 2,0 18 10 ENE 10
13.01.2019 23:00:00 5,0 2,0 24 13 NE 10
13.01.2019 22:00:00 5,0 2,0 26 14 NE 10
13.01.2019 21:00:00 6,0 4,0 26 14 NE 10
13.01.2019 20:00:00 5,0 4,0 13 7 NNW 10
13.01.2019 19:00:00 6,0 5,0 26 14 NW 10
13.01.2019 18:00:00 7,0 4,0 22 12 NW 10
13.01.2019 17:00:00 7,0 4,0 26 14 NW 10
13.01.2019 16:00:00 7,0 4,0 29 16 NW 10
13.01.2019 15:00:00 6,0 4,0 39 21 WNW 10
13.01.2019 14:00:00 6,0 4,0 41 22 WNW 10
13.01.2019 13:00:00 7,0 5,0 31 17 WNW 10
13.01.2019 12:00:00 8,0 4,0 34 18 WNW 10
13.01.2019 11:00:00 7,0 5,0 37 20 WNW 10
13.01.2019 10:00:00 7,0 4,0 34 18 WNW 10
13.01.2019 09:00:00 8,0 5,0 34 18 WNW 10
13.01.2019 08:00:00 8,0 5,0 35 19 WNW 10
13.01.2019 07:00:00 8,0 4,0 41 22 WNW 7
13.01.2019 06:00:00 9,0 6,0 37 20 W 10
13.01.2019 05:00:00 9,0 5,0 42 23 WNW 10
13.01.2019 04:00:00 9,0 8,0 44 24 W 10
13.01.2019 03:00:00 10,0 8,0 41 22 W 6
13.01.2019 02:00:00 10,0 9,0 42 23 W 4,0
13.01.2019 01:00:00 10,0 9,0 37 20 W 4,8
13.01.2019 00:00:00 10,0 9,0 42 23 W 8
12.01.2019 23:00:00 10,0 9,0 41 22 W 4,1
12.01.2019 22:00:00 10,0 9,0 42 23 W 2,9
12.01.2019 21:00:00 10,0 9,0 41 22 W 3,8
12.01.2019 20:00:00 10,0 9,0 42 23 W 7
12.01.2019 19:00:00 10,0 9,0 37 20 W 4,0
12.01.2019 18:00:00 10,0 9,0 31 17 W 7
12.01.2019 17:00:00 10,0 9,0 34 18 W 5
12.01.2019 16:00:00 10,0 9,0 28 15 W 6
12.01.2019 15:00:00 10,0 9,0 29 16 W 3,5
12.01.2019 14:00:00 10,0 8,0 29 16 W 10
12.01.2019 13:00:00 9,0 8,0 21 11 W 4,0
12.01.2019 12:00:00 8,0 7,0 22 12 WSW 3,5
12.01.2019 11:00:00 8,0 7,0 24 13 W 3,5
12.01.2019 10:00:00 8,0 6,0 39 21 W 10
12.01.2019 09:00:00 8,0 6,0 34 18 W 10
12.01.2019 08:00:00 8,0 6,0 35 19 W 10
12.01.2019 07:00:00 8,0 6,0 31 17 W 10
12.01.2019 06:00:00 8,0 6,0 31 17 W 10
12.01.2019 05:00:00 7,0 6,0 31 17 WNW 10
12.01.2019 04:00:00 7,0 6,0 26 14 W 10
12.01.2019 03:00:00 8,0 5,0 34 18 W 10
12.01.2019 02:00:00 8,0 6,0 29 16 W 10
12.01.2019 01:00:00 8,0 5,0 29 16 W 10
12.01.2019 00:00:00 7,0 6,0 28 15 W 10
11.01.2019 23:00:00 7,0 6,0 31 17 W 10
11.01.2019 22:00:00 8,0 6,0 31 17 W 10
11.01.2019 21:00:00 8,0 7,0 35 19 W 10
11.01.2019 20:00:00 9,0 8,0 31 17 SSW 6
11.01.2019 19:00:00 8,0 7,0 29 16 SSW 10
11.01.2019 18:00:00 8,0 6,0 24 13 SSW 10
11.01.2019 17:00:00 7,0 6,0 16 9 SSW 10
11.01.2019 16:00:00 8,0 6,0 13 7 SSW 10
11.01.2019 15:00:00 8,0 7,0 13 7 WSW 10
11.01.2019 14:00:00 9,0 7,0 16 9 SW 10
11.01.2019 13:00:00 8,0 7,0 13 7 SW 10
11.01.2019 12:00:00 8,0 7,0 16 9 SW 10
11.01.2019 11:00:00 8,0 7,0 9 5 SW 10
11.01.2019 10:00:00 8,0 7,0 9 5 SW 10
11.01.2019 09:00:00 8,0 7,0 5 3 W 10
11.01.2019 08:00:00 8,0 7,0 4 2 - 10
11.01.2019 07:00:00 8,0 7,0 8 4 W 10
11.01.2019 06:00:00 8,0 6,0 13 7 WSW 10
11.01.2019 05:00:00 8,0 7,0 13 7 W 10
11.01.2019 04:00:00 7,0 6,0 9 5 W 10
11.01.2019 03:00:00 7,0 6,0 9 5 SW 10
11.01.2019 02:00:00 7,0 6,0 8 4 SW 10
11.01.2019 01:00:00 6,0 5,0 11 6 SW 10
11.01.2019 00:00:00 8,0 6,0 21 11 W 10
10.01.2019 23:00:00 8,0 6,0 21 11 W 10
10.01.2019 22:00:00 8,0 6,0 18 10 WNW 10
10.01.2019 21:00:00 8,0 6,0 16 9 W 10
10.01.2019 20:00:00 9,0 5,0 21 11 WNW 10
10.01.2019 19:00:00 9,0 7,0 16 9 W 10
10.01.2019 18:00:00 9,0 7,0 16 9 W 10
10.01.2019 17:00:00 9,0 7,0 11 6 WSW 10

tt = temperature
td = dewpoint
ff = wind speed
dd = wind direction
vv = visibility

Next stations